createdAt,value
2018-03-10T00:02:06.618Z,8.70
2018-03-10T00:04:34.107Z,8.70
2018-03-10T00:07:01.611Z,8.70
2018-03-10T00:09:29.095Z,8.70
2018-03-10T00:11:57.382Z,8.70
2018-03-10T00:14:24.876Z,8.60
2018-03-10T00:16:52.367Z,8.70
2018-03-10T00:19:19.881Z,8.70
2018-03-10T00:21:47.368Z,8.70
2018-03-10T00:24:15.635Z,8.80
2018-03-10T00:26:43.128Z,8.80
2018-03-10T00:29:11.397Z,8.80
2018-03-10T00:31:38.885Z,8.70
2018-03-10T00:34:07.159Z,8.70
2018-03-10T00:36:34.641Z,8.60
2018-03-10T00:39:03.029Z,8.60
2018-03-10T00:41:31.301Z,8.60
2018-03-10T00:43:58.816Z,8.60
2018-03-10T00:46:26.301Z,8.60
2018-03-10T00:48:53.783Z,8.60
2018-03-10T00:51:21.283Z,8.60
2018-03-10T00:53:48.764Z,8.60
2018-03-10T00:56:16.268Z,8.60
2018-03-10T00:58:43.746Z,8.60
2018-03-10T01:01:11.252Z,8.60
2018-03-10T01:03:38.741Z,8.70
2018-03-10T01:06:06.245Z,8.70
2018-03-10T01:08:33.724Z,8.60
2018-03-10T01:11:01.233Z,8.70
2018-03-10T01:13:28.723Z,8.70
2018-03-10T01:15:56.227Z,8.70
2018-03-10T01:18:23.707Z,8.70
2018-03-10T01:20:51.226Z,8.70
2018-03-10T01:23:18.711Z,8.60
2018-03-10T01:25:46.196Z,8.70
2018-03-10T01:28:14.473Z,8.90
2018-03-10T01:30:42.728Z,8.80
2018-03-10T01:33:10.236Z,8.80
2018-03-10T01:35:58.895Z,8.80
2018-03-10T01:38:27.164Z,8.70
2018-03-10T01:40:54.652Z,8.70
2018-03-10T01:43:22.164Z,8.70
2018-03-10T01:45:49.651Z,8.70
2018-03-10T01:48:17.164Z,8.70
2018-03-10T01:50:44.656Z,8.80
2018-03-10T01:53:12.182Z,8.70
2018-03-10T01:55:39.672Z,8.60
2018-03-10T01:58:07.151Z,8.60
2018-03-10T02:00:35.428Z,8.60
2018-03-10T02:03:02.912Z,8.50
2018-03-10T02:05:31.188Z,8.50
2018-03-10T02:07:58.673Z,8.50
2018-03-10T02:10:26.196Z,8.50
2018-03-10T02:12:53.697Z,8.50
2018-03-10T02:15:21.217Z,8.50
2018-03-10T02:17:48.712Z,8.50
2018-03-10T02:20:16.229Z,8.60
2018-03-10T02:22:44.492Z,8.60
2018-03-10T02:25:12.004Z,8.50
2018-03-10T02:27:39.502Z,8.50
2018-03-10T02:30:07.008Z,8.50
2018-03-10T02:32:34.514Z,8.50
2018-03-10T02:35:02.021Z,8.40
2018-03-10T02:37:29.505Z,8.50
2018-03-10T02:39:57.025Z,8.50
2018-03-10T02:42:24.508Z,8.40
2018-03-10T02:44:52.020Z,8.60
2018-03-10T02:47:19.504Z,8.50
2018-03-10T02:49:47.018Z,8.50
2018-03-10T02:52:14.513Z,8.60
2018-03-10T02:54:42.024Z,8.60
2018-03-10T02:57:10.277Z,8.70
2018-03-10T02:59:37.769Z,8.60
2018-03-10T03:02:05.281Z,8.70
2018-03-10T03:04:32.776Z,8.60
2018-03-10T03:07:00.288Z,8.70
2018-03-10T03:09:28.549Z,8.70
2018-03-10T03:11:56.062Z,8.70
2018-03-10T03:14:23.560Z,8.60
2018-03-10T03:16:51.077Z,8.70
2018-03-10T03:19:18.564Z,8.80
2018-03-10T03:21:46.845Z,8.70
2018-03-10T03:24:15.114Z,8.60
2018-03-10T03:26:42.625Z,8.60
2018-03-10T03:29:10.116Z,8.60
2018-03-10T03:31:38.412Z,8.50
2018-03-10T03:34:05.912Z,8.50
2018-03-10T03:36:33.411Z,8.50
2018-03-10T03:39:01.701Z,8.70
2018-03-10T03:41:29.966Z,8.70
2018-03-10T03:43:57.476Z,8.70
2018-03-10T03:46:24.965Z,8.70
2018-03-10T03:48:52.482Z,8.70
2018-03-10T03:51:19.982Z,8.60
2018-03-10T03:53:47.497Z,8.70
2018-03-10T03:56:14.994Z,8.70
2018-03-10T03:58:42.516Z,8.70
2018-03-10T04:01:10.014Z,8.60
2018-03-10T04:03:37.518Z,8.70
2018-03-10T04:06:05.777Z,8.70
2018-03-10T04:08:33.297Z,8.60
2018-03-10T04:11:00.784Z,8.70
2018-03-10T04:13:28.298Z,8.60
2018-03-10T04:15:55.788Z,8.60
2018-03-10T04:18:24.052Z,8.60
2018-03-10T04:20:51.567Z,8.60
2018-03-10T04:23:19.056Z,8.60
2018-03-10T04:25:46.561Z,8.60
2018-03-10T04:28:14.053Z,8.60
2018-03-10T04:30:42.335Z,8.60
2018-03-10T04:33:09.835Z,8.60
2018-03-10T04:35:37.362Z,8.70
2018-03-10T04:38:04.857Z,8.70
2018-03-10T04:40:33.135Z,8.70
2018-03-10T04:43:00.629Z,8.60
2018-03-10T04:45:28.917Z,8.70
2018-03-10T04:47:57.168Z,8.80
2018-03-10T04:50:24.693Z,8.70
2018-03-10T04:52:52.189Z,8.80
2018-03-10T04:55:19.677Z,8.80
2018-03-10T04:57:47.197Z,8.80
2018-03-10T05:00:14.685Z,8.70
2018-03-10T05:02:42.193Z,8.60
2018-03-10T05:05:09.695Z,8.60
2018-03-10T05:07:37.977Z,8.60
2018-03-10T05:10:06.238Z,8.60
2018-03-10T05:12:33.755Z,8.60
2018-03-10T05:15:01.253Z,8.70
2018-03-10T05:17:28.769Z,8.60
2018-03-10T05:19:56.276Z,8.60
2018-03-10T05:22:23.785Z,8.60
2018-03-10T05:24:51.277Z,8.50
2018-03-10T05:27:18.788Z,8.60
2018-03-10T05:29:46.277Z,8.60
2018-03-10T05:32:13.794Z,8.60
2018-03-10T05:34:42.052Z,8.70
2018-03-10T05:37:09.581Z,8.70
2018-03-10T05:39:37.074Z,8.60
2018-03-10T05:42:04.565Z,8.50
2018-03-10T05:44:32.068Z,8.60
2018-03-10T05:47:00.325Z,8.60
2018-03-10T05:49:27.849Z,8.60
2018-03-10T05:51:55.337Z,8.60
2018-03-10T05:54:22.865Z,8.60
2018-03-10T05:56:51.128Z,8.60
2018-03-10T05:59:18.645Z,8.50
2018-03-10T06:01:46.136Z,8.60
2018-03-10T06:04:13.669Z,8.50
2018-03-10T06:06:41.920Z,8.60
2018-03-10T06:09:09.439Z,8.50
2018-03-10T06:11:37.697Z,8.70
2018-03-10T06:14:05.290Z,8.60
2018-03-10T06:16:32.769Z,8.70
2018-03-10T06:19:00.249Z,8.60
2018-03-10T06:21:27.745Z,8.60
2018-03-10T06:23:55.264Z,8.60
2018-03-10T06:26:23.521Z,8.60
2018-03-10T06:28:51.009Z,8.50
2018-03-10T06:31:18.517Z,8.50
2018-03-10T06:33:46.017Z,8.60
2018-03-10T06:36:13.649Z,8.50
2018-03-10T06:38:41.908Z,8.50
2018-03-10T06:41:09.422Z,8.50
2018-03-10T06:43:36.917Z,8.50
2018-03-10T06:46:04.425Z,8.50
2018-03-10T06:48:31.917Z,8.60
2018-03-10T06:50:59.433Z,8.60
2018-03-10T06:53:26.929Z,8.70
2018-03-10T06:55:54.441Z,8.70
2018-03-10T06:58:21.931Z,8.70
2018-03-10T07:00:49.450Z,8.80
2018-03-10T07:03:17.720Z,8.80
2018-03-10T07:05:48.818Z,8.80
2018-03-10T07:08:16.309Z,8.90
2018-03-10T07:10:43.812Z,8.90
2018-03-10T07:13:11.324Z,8.90
2018-03-10T07:15:39.581Z,9.10
2018-03-10T07:18:07.092Z,9.00
2018-03-10T07:20:34.585Z,9.10
2018-03-10T07:23:02.096Z,9.20
2018-03-10T07:25:29.593Z,9.20
2018-03-10T07:27:57.874Z,9.30
2018-03-10T07:30:26.130Z,9.30
2018-03-10T07:32:53.652Z,9.30
2018-03-10T07:35:21.153Z,9.40
2018-03-10T07:37:48.657Z,9.40
2018-03-10T07:40:16.148Z,9.50
2018-03-10T07:42:44.440Z,9.50
2018-03-10T07:45:12.702Z,9.50
2018-03-10T07:47:40.232Z,9.50
2018-03-10T07:50:07.736Z,9.50
2018-03-10T07:52:35.232Z,9.60
2018-03-10T07:55:03.513Z,9.70
2018-03-10T07:57:31.769Z,9.70
2018-03-10T07:59:59.287Z,9.60
2018-03-10T08:02:26.787Z,9.80
2018-03-10T08:04:54.301Z,9.90
2018-03-10T08:07:21.796Z,9.90
2018-03-10T08:09:50.077Z,10.00
2018-03-10T08:12:18.340Z,10.10
2018-03-10T08:14:45.892Z,10.00
2018-03-10T08:17:13.377Z,10.00
2018-03-10T08:19:40.901Z,10.00
2018-03-10T08:22:08.396Z,10.10
2018-03-10T08:24:35.921Z,10.20
2018-03-10T08:27:28.700Z,10.30
2018-03-10T08:29:56.228Z,10.20
2018-03-10T08:32:23.730Z,10.20
2018-03-10T08:34:52.010Z,10.30
2018-03-10T08:37:20.277Z,10.30
2018-03-10T08:39:47.790Z,10.30
2018-03-10T08:42:15.284Z,10.40
2018-03-10T08:44:42.804Z,10.50
2018-03-10T08:47:11.065Z,10.70
2018-03-10T08:49:38.580Z,10.70
2018-03-10T08:52:06.085Z,10.80
2018-03-10T08:54:33.616Z,10.80
2018-03-10T08:57:01.877Z,10.80
2018-03-10T08:59:29.377Z,10.80
2018-03-10T09:01:57.663Z,10.90
2018-03-10T09:04:25.936Z,11.00
2018-03-10T09:06:54.222Z,11.00
2018-03-10T09:09:21.720Z,11.00
2018-03-10T09:11:49.241Z,11.20
2018-03-10T09:14:16.732Z,11.20
2018-03-10T09:16:44.253Z,11.30
2018-03-10T09:19:11.748Z,11.40
2018-03-10T09:21:39.274Z,11.40
2018-03-10T09:24:06.781Z,11.50
2018-03-10T09:26:34.309Z,11.60
2018-03-10T09:29:01.808Z,11.60
2018-03-10T09:31:29.328Z,11.70
2018-03-10T09:33:56.828Z,11.70
2018-03-10T09:36:24.352Z,11.80
2018-03-10T09:38:51.856Z,11.80
2018-03-10T09:41:20.145Z,11.90
2018-03-10T09:43:48.405Z,11.90
2018-03-10T09:46:15.914Z,11.90
2018-03-10T09:48:43.432Z,12.00
2018-03-10T09:51:10.933Z,12.00
2018-03-10T09:53:39.213Z,12.20
2018-03-10T09:56:06.717Z,12.10
2018-03-10T09:58:34.236Z,12.30
2018-03-10T10:01:02.583Z,12.30
2018-03-10T10:03:30.100Z,12.40
2018-03-10T10:05:57.596Z,12.40
2018-03-10T10:08:25.881Z,12.40
2018-03-10T10:10:54.147Z,12.50
2018-03-10T10:13:21.666Z,12.40
2018-03-10T10:15:49.157Z,12.60
2018-03-10T10:18:17.447Z,12.70
2018-03-10T10:20:44.946Z,12.60
2018-03-10T10:23:12.433Z,12.80
2018-03-10T10:25:39.940Z,12.90
2018-03-10T10:28:07.426Z,12.90
2018-03-10T10:30:34.942Z,12.90
2018-03-10T10:33:02.437Z,13.00
2018-03-10T10:35:30.716Z,13.10
2018-03-10T10:37:59.005Z,13.10
2018-03-10T10:40:27.287Z,13.30
2018-03-10T10:42:55.549Z,13.50
2018-03-10T10:45:23.060Z,13.40
2018-03-10T10:47:51.317Z,13.70
2018-03-10T10:50:18.826Z,13.60
2018-03-10T10:52:46.329Z,13.70
2018-03-10T10:55:13.852Z,13.80
2018-03-10T10:57:41.351Z,13.80
2018-03-10T11:00:08.844Z,13.90
2018-03-10T11:02:40.197Z,13.90
2018-03-10T11:05:08.454Z,14.00
2018-03-10T11:07:35.964Z,14.00
2018-03-10T11:10:03.455Z,14.10
2018-03-10T11:12:30.968Z,14.20
2018-03-10T11:14:58.472Z,14.20
2018-03-10T11:17:25.985Z,14.30
2018-03-10T11:19:54.241Z,14.20
2018-03-10T11:22:21.750Z,14.20
2018-03-10T11:24:50.004Z,14.10
2018-03-10T11:27:17.517Z,14.10
2018-03-10T11:29:45.773Z,14.00
2018-03-10T11:32:13.287Z,13.90
2018-03-10T11:34:40.772Z,13.90
2018-03-10T11:37:08.284Z,13.90
2018-03-10T11:39:35.768Z,13.80
2018-03-10T11:42:03.263Z,13.80
2018-03-10T11:44:31.549Z,13.60
2018-03-10T11:46:59.040Z,13.60
2018-03-10T11:49:26.548Z,13.50
2018-03-10T11:51:54.041Z,13.50
2018-03-10T11:54:22.327Z,13.50
2018-03-10T11:56:50.581Z,13.40
2018-03-10T11:59:18.088Z,13.40
2018-03-10T12:01:45.574Z,13.40
2018-03-10T12:04:23.125Z,13.30
2018-03-10T12:06:50.625Z,13.40
2018-03-10T12:09:18.130Z,13.30
2018-03-10T12:11:46.557Z,13.30
2018-03-10T12:14:14.068Z,13.30
2018-03-10T12:16:41.554Z,13.40
2018-03-10T12:19:09.809Z,13.30
2018-03-10T12:21:37.323Z,13.30
2018-03-10T12:24:04.828Z,13.30
2018-03-10T12:26:32.346Z,13.30
2018-03-10T12:29:00.609Z,13.20
2018-03-10T12:31:28.126Z,13.20
2018-03-10T12:33:55.616Z,13.20
2018-03-10T12:36:23.129Z,13.20
2018-03-10T12:38:50.620Z,13.20
2018-03-10T12:41:18.906Z,13.10
2018-03-10T12:43:47.166Z,13.10
2018-03-10T12:46:14.715Z,13.00
2018-03-10T12:48:42.181Z,13.00
2018-03-10T12:51:09.690Z,13.00
2018-03-10T12:53:37.188Z,13.00
2018-03-10T12:56:04.677Z,12.90
2018-03-10T12:58:32.184Z,12.90
2018-03-10T13:00:59.673Z,12.90
2018-03-10T13:03:27.216Z,12.90
2018-03-10T13:05:54.808Z,12.90
2018-03-10T13:08:23.008Z,13.00
2018-03-10T13:10:51.265Z,13.00
2018-03-10T13:13:18.772Z,13.00
2018-03-10T13:15:47.025Z,13.00
2018-03-10T13:18:14.533Z,13.00
2018-03-10T13:20:42.793Z,13.10
2018-03-10T13:23:10.319Z,13.10
2018-03-10T13:25:38.577Z,13.10
2018-03-10T13:28:06.856Z,13.10
2018-03-10T13:30:34.356Z,13.10
2018-03-10T13:33:01.845Z,13.10
2018-03-10T13:35:29.352Z,13.10
2018-03-10T13:37:56.841Z,13.00
2018-03-10T13:40:25.113Z,13.00
2018-03-10T13:42:52.600Z,12.90
2018-03-10T13:45:20.884Z,13.00
2018-03-10T13:47:49.141Z,13.00
2018-03-10T13:50:16.653Z,13.00
2018-03-10T13:52:44.142Z,13.00
2018-03-10T13:55:11.646Z,13.00
2018-03-10T13:57:39.141Z,13.00
2018-03-10T14:00:06.651Z,13.00
2018-03-10T14:02:46.024Z,13.00
2018-03-10T14:05:13.536Z,13.00
2018-03-10T14:07:41.021Z,13.10
2018-03-10T14:10:09.273Z,13.00
2018-03-10T14:12:36.786Z,13.00
2018-03-10T14:15:05.046Z,13.00
2018-03-10T14:17:32.549Z,13.00
2018-03-10T14:20:00.801Z,12.90
2018-03-10T14:22:28.318Z,12.80
2018-03-10T14:24:55.803Z,12.80
2018-03-10T14:27:23.316Z,12.80
2018-03-10T14:29:50.806Z,12.70
2018-03-10T14:32:19.077Z,12.70
2018-03-10T14:34:46.570Z,12.60
2018-03-10T14:37:14.098Z,12.70
2018-03-10T14:39:41.584Z,12.60
2018-03-10T14:42:09.097Z,12.60
2018-03-10T14:44:36.595Z,12.60
2018-03-10T14:47:04.117Z,12.70
2018-03-10T14:49:32.372Z,12.70
2018-03-10T14:51:59.868Z,12.60
2018-03-10T14:54:28.153Z,12.60
2018-03-10T14:56:56.421Z,12.70
2018-03-10T14:59:23.926Z,12.60
2018-03-10T15:01:52.188Z,12.60
2018-03-10T15:04:31.634Z,12.50
2018-03-10T15:06:59.124Z,12.60
2018-03-10T15:09:27.404Z,12.50
2018-03-10T15:11:54.909Z,12.40
2018-03-10T15:14:22.427Z,12.40
2018-03-10T15:16:49.920Z,12.40
2018-03-10T15:19:17.432Z,12.40
2018-03-10T15:21:44.933Z,12.40
2018-03-10T15:24:12.452Z,12.40
2018-03-10T15:26:40.708Z,12.40
2018-03-10T15:29:08.220Z,12.40
2018-03-10T15:31:35.709Z,12.40
2018-03-10T15:34:03.205Z,12.50
2018-03-10T15:36:30.717Z,12.50
2018-03-10T15:38:58.983Z,12.50
2018-03-10T15:41:26.500Z,12.50
2018-03-10T15:43:53.993Z,12.50
2018-03-10T15:46:21.504Z,12.50
2018-03-10T15:48:48.995Z,12.40
2018-03-10T15:51:16.515Z,12.40
2018-03-10T15:53:44.001Z,12.30
2018-03-10T15:56:11.504Z,12.20
2018-03-10T15:58:39.004Z,12.20
2018-03-10T16:01:07.281Z,12.20
2018-03-10T16:03:34.780Z,12.10
2018-03-10T16:06:02.291Z,12.10
2018-03-10T16:08:30.558Z,12.10
2018-03-10T16:10:58.064Z,12.10
2018-03-10T16:13:25.556Z,12.10
2018-03-10T16:15:53.069Z,12.10
2018-03-10T16:18:20.565Z,12.10
2018-03-10T16:20:48.816Z,12.20
2018-03-10T16:23:16.324Z,12.10
2018-03-10T16:25:44.577Z,12.10
2018-03-10T16:28:12.077Z,12.00
2018-03-10T16:30:40.369Z,12.00
2018-03-10T16:33:07.858Z,12.00
2018-03-10T16:35:35.348Z,12.00
2018-03-10T16:38:02.874Z,11.90
2018-03-10T16:40:30.365Z,12.00
2018-03-10T16:42:57.889Z,11.90
2018-03-10T16:45:25.384Z,12.00
2018-03-10T16:47:53.665Z,11.90
2018-03-10T16:50:21.157Z,11.80
2018-03-10T16:52:49.437Z,11.80
2018-03-10T16:55:17.692Z,11.80
2018-03-10T16:57:45.178Z,11.70
2018-03-10T17:00:12.689Z,11.80
2018-03-10T17:02:40.186Z,11.80
2018-03-10T17:05:07.693Z,11.80
2018-03-10T17:07:35.186Z,11.70
2018-03-10T17:10:03.460Z,11.80
2018-03-10T17:12:31.716Z,11.80
2018-03-10T17:14:59.232Z,11.80
2018-03-10T17:17:27.522Z,11.80
2018-03-10T17:19:56.800Z,11.80
2018-03-10T17:22:24.281Z,11.80
2018-03-10T17:24:51.808Z,11.80
2018-03-10T17:27:19.327Z,11.90
2018-03-10T17:29:47.612Z,11.90
2018-03-10T17:32:15.150Z,11.80
2018-03-10T17:34:42.682Z,11.90
2018-03-10T17:37:10.174Z,11.80
2018-03-10T17:39:37.660Z,11.90
2018-03-10T17:42:05.194Z,11.80
2018-03-10T17:44:32.707Z,11.80
2018-03-10T17:47:00.245Z,11.90
2018-03-10T17:49:27.737Z,11.90
2018-03-10T17:51:55.255Z,11.90
2018-03-10T17:54:23.529Z,11.90
2018-03-10T17:56:51.046Z,11.80
2018-03-10T17:59:18.538Z,12.00
2018-03-10T18:01:46.053Z,11.90
2018-03-10T18:04:13.543Z,11.90
2018-03-10T18:06:41.061Z,11.90
2018-03-10T18:09:08.553Z,11.90
2018-03-10T18:11:36.853Z,11.90
2018-03-10T18:14:04.340Z,11.90
2018-03-10T18:16:32.601Z,11.90
2018-03-10T18:19:00.117Z,11.90
2018-03-10T18:21:27.609Z,11.90
2018-03-10T18:23:55.131Z,11.90
2018-03-10T18:26:23.537Z,11.90
2018-03-10T18:28:50.920Z,11.80
2018-03-10T18:31:18.422Z,11.90
2018-03-10T18:33:45.936Z,11.90
2018-03-10T18:36:13.453Z,12.00
2018-03-10T18:38:40.965Z,12.00
2018-03-10T18:41:08.465Z,12.00
2018-03-10T18:43:35.991Z,12.00
2018-03-10T18:46:03.492Z,12.00
2018-03-10T18:48:31.788Z,12.00
2018-03-10T18:50:59.286Z,11.90
2018-03-10T18:53:26.793Z,12.00
2018-03-10T18:55:54.323Z,12.00
2018-03-10T18:58:21.826Z,11.90
2018-03-10T19:00:49.343Z,11.90
2018-03-10T19:03:16.828Z,11.90
2018-03-10T19:05:44.344Z,11.90
2018-03-10T19:08:11.834Z,11.90
2018-03-10T19:10:39.365Z,11.90
2018-03-10T19:13:06.865Z,11.90
2018-03-10T19:15:34.468Z,12.00
2018-03-10T19:18:01.971Z,12.00
2018-03-10T19:20:29.489Z,12.00
2018-03-10T19:22:57.001Z,12.00
2018-03-10T19:25:24.522Z,12.00
2018-03-10T19:27:52.019Z,12.00
2018-03-10T19:30:25.489Z,12.00
2018-03-10T19:32:52.992Z,12.00
2018-03-10T19:35:21.258Z,12.00
2018-03-10T19:37:48.785Z,12.00
2018-03-10T19:40:16.289Z,12.00
2018-03-10T19:42:43.812Z,12.00
2018-03-10T19:45:11.322Z,11.90
2018-03-10T19:47:38.837Z,11.90
2018-03-10T19:50:06.331Z,11.90
2018-03-10T19:52:34.625Z,11.90
2018-03-10T19:55:02.130Z,11.80
2018-03-10T19:57:29.653Z,11.90
2018-03-10T19:59:57.158Z,11.90
2018-03-10T20:02:24.673Z,11.90
2018-03-10T20:04:52.933Z,11.90
2018-03-10T20:07:20.454Z,11.80
2018-03-10T20:09:47.958Z,11.80
2018-03-10T20:12:15.477Z,11.80
2018-03-10T20:14:43.000Z,11.80
2018-03-10T20:17:10.516Z,11.80
2018-03-10T20:19:38.797Z,11.90
2018-03-10T20:22:07.082Z,11.90
2018-03-10T20:24:34.717Z,11.80
2018-03-10T20:27:02.229Z,11.80
2018-03-10T20:29:30.518Z,11.80
2018-03-10T20:31:58.780Z,11.70
2018-03-10T20:34:26.300Z,11.70
2018-03-10T20:36:53.794Z,11.70
2018-03-10T20:39:21.315Z,11.80
2018-03-10T20:41:49.582Z,11.70
2018-03-10T20:44:17.114Z,11.70
2018-03-10T20:46:44.625Z,11.70
2018-03-10T20:49:12.158Z,11.60
2018-03-10T20:51:40.423Z,11.70
2018-03-10T20:54:07.946Z,11.60
2018-03-10T20:56:35.445Z,11.70
2018-03-10T20:59:03.714Z,11.80
2018-03-10T21:01:31.237Z,11.80
2018-03-10T21:03:58.741Z,11.90
2018-03-10T21:06:26.262Z,11.90
2018-03-10T21:08:53.749Z,11.90
2018-03-10T21:11:22.037Z,12.00
2018-03-10T21:13:49.542Z,12.00
2018-03-10T21:16:17.073Z,12.00
2018-03-10T21:18:44.564Z,12.00
2018-03-10T21:21:12.078Z,12.00
2018-03-10T21:23:39.576Z,12.00
2018-03-10T21:26:07.111Z,12.00
2018-03-10T21:28:34.608Z,12.10
2018-03-10T21:31:02.881Z,12.10
2018-03-10T21:33:30.378Z,12.10
2018-03-10T21:35:57.901Z,12.10
2018-03-10T21:38:25.400Z,12.10
2018-03-10T21:40:53.693Z,12.10
2018-03-10T21:43:21.950Z,12.00
2018-03-10T21:45:49.445Z,12.00
2018-03-10T21:48:17.733Z,12.00
2018-03-10T21:50:46.051Z,12.00
2018-03-10T21:53:13.529Z,12.00
2018-03-10T21:55:41.079Z,12.00
2018-03-10T21:58:08.556Z,11.90
2018-03-10T22:00:36.137Z,12.00
2018-03-10T22:03:03.953Z,12.00
2018-03-10T22:05:31.474Z,12.00
2018-03-10T22:07:59.040Z,11.90
2018-03-10T22:10:26.494Z,11.90
2018-03-10T22:12:54.104Z,12.00
2018-03-10T22:15:21.568Z,12.00
2018-03-10T22:17:49.130Z,12.10
2018-03-10T22:20:16.657Z,12.00
2018-03-10T22:22:49.891Z,12.00
2018-03-10T22:25:18.156Z,12.10
2018-03-10T22:27:45.761Z,12.10
2018-03-10T22:30:13.190Z,12.10
2018-03-10T22:32:40.708Z,12.10
2018-03-10T22:35:08.201Z,12.10
2018-03-10T22:37:35.720Z,12.10
2018-03-10T22:40:03.984Z,12.20
2018-03-10T22:42:31.498Z,12.10
2018-03-10T22:44:58.998Z,12.20
2018-03-10T22:47:26.517Z,12.20
2018-03-10T22:49:54.004Z,12.20
2018-03-10T22:52:22.281Z,12.20
2018-03-10T22:54:50.544Z,12.20
2018-03-10T22:57:18.073Z,12.10
2018-03-10T22:59:45.563Z,12.20
2018-03-10T23:02:13.077Z,12.20
2018-03-10T23:04:40.571Z,12.20
2018-03-10T23:07:08.094Z,12.20
2018-03-10T23:09:35.589Z,12.10
2018-03-10T23:12:03.188Z,12.10
2018-03-10T23:14:30.710Z,12.00
2018-03-10T23:16:58.213Z,12.00
2018-03-10T23:19:26.492Z,11.80
2018-03-10T23:21:54.756Z,11.80
2018-03-10T23:24:22.268Z,11.70
2018-03-10T23:26:50.528Z,11.70
2018-03-10T23:29:18.040Z,11.60
2018-03-10T23:31:45.528Z,11.60
2018-03-10T23:34:13.040Z,11.50
2018-03-10T23:36:40.536Z,11.60
2018-03-10T23:39:08.813Z,11.50
2018-03-10T23:41:37.081Z,11.50
2018-03-10T23:44:04.598Z,11.50
2018-03-10T23:46:32.088Z,11.50
2018-03-10T23:48:59.603Z,11.50
2018-03-10T23:51:27.098Z,11.40
2018-03-10T23:53:54.609Z,11.40
2018-03-10T23:56:22.119Z,11.40
2018-03-10T23:58:50.400Z,11.40
